Windham, New Hampshire
Current Conditions -  °F | °C
As of 2:22 PM on Tuesday 21 Oct 2014 (Local Time) from KLWM Reporting Station
Broken Clouds Broken Clouds  
Wind Chill: 16°   Ceiling: 12000
Heat Index: 16°   Visibility: 10mi
Dew Point: 12°   Wind: 5mph
Humidity: 78%   Direction: NA
Pressure: 29.94"   Gusts: NA
Location:  42.8°N, 71.3°W
Report Text: KLWM 211822Z VRB04KT 10SM FEW021 SCT026 BKN120 16/12 A2994 RMK AO2 T01610122
Loading
Personal Weather Stations






























Interactive Weather Map
Tropical Storm Tracking
New forecast layout! Learn more

10-Day Weather Forecast

Advertisements
Track Severe Weather on mobile